createdAt,value
2023-05-24T00:00:16.041Z,62.42
2023-05-24T00:05:19.031Z,63.41
2023-05-24T00:10:21.498Z,62.49
2023-05-24T00:15:23.949Z,63.39
2023-05-24T00:20:26.954Z,64.72
2023-05-24T00:25:29.338Z,63.63
2023-05-24T00:30:31.504Z,62.66
2023-05-24T00:35:33.676Z,62.03
2023-05-24T00:40:35.903Z,63.18
2023-05-24T00:45:38.270Z,61.90
2023-05-24T00:50:41.983Z,62.00
2023-05-24T00:55:44.595Z,62.27
2023-05-24T01:00:49.803Z,62.26
2023-05-24T01:05:52.094Z,61.78
2023-05-24T01:11:07.633Z,62.86
2023-05-24T01:16:18.062Z,62.77
2023-05-24T01:22:18.392Z,62.22
2023-05-24T01:27:23.387Z,61.41
2023-05-24T01:32:26.800Z,61.68
2023-05-24T01:37:29.155Z,63.15
2023-05-24T01:42:46.195Z,63.00
2023-05-24T01:48:28.096Z,64.21
2023-05-24T01:53:35.235Z,63.56
2023-05-24T01:58:42.268Z,64.37
2023-05-24T02:03:44.772Z,63.40
2023-05-24T02:08:47.094Z,61.81
2023-05-24T02:13:49.375Z,63.35
2023-05-24T02:18:51.818Z,63.31
2023-05-24T02:23:54.147Z,63.07
2023-05-24T02:28:57.204Z,65.46
2023-05-24T02:34:00.040Z,62.58
2023-05-24T02:39:04.294Z,64.43
2023-05-24T02:44:06.625Z,63.22
2023-05-24T02:49:10.159Z,63.81
2023-05-24T02:54:12.476Z,63.79
2023-05-24T02:59:15.077Z,62.25
2023-05-24T03:04:17.738Z,63.33
2023-05-24T03:09:20.114Z,64.78
2023-05-24T03:14:24.082Z,63.84
2023-05-24T03:19:27.208Z,64.33
2023-05-24T03:24:29.487Z,66.13
2023-05-24T03:29:32.778Z,65.33
2023-05-24T03:34:35.796Z,65.32
2023-05-24T03:39:38.303Z,64.80
2023-05-24T03:44:59.103Z,64.98
2023-05-24T03:50:01.586Z,65.79
2023-05-24T03:55:04.610Z,66.37
2023-05-24T04:00:07.990Z,64.28
2023-05-24T04:05:16.284Z,64.54
2023-05-24T04:10:18.813Z,66.72
2023-05-24T04:15:21.502Z,65.06
2023-05-24T04:20:27.893Z,66.26
2023-05-24T04:25:30.266Z,65.20
2023-05-24T04:30:32.856Z,66.17
2023-05-24T04:35:35.703Z,66.01
2023-05-24T04:40:38.586Z,65.83
2023-05-24T04:45:40.949Z,67.10
2023-05-24T04:50:43.301Z,66.85
2023-05-24T04:55:46.067Z,66.03
2023-05-24T05:00:48.496Z,66.97
2023-05-24T05:05:50.771Z,67.19
2023-05-24T05:10:53.162Z,64.89
2023-05-24T05:15:55.428Z,65.53
2023-05-24T05:20:58.464Z,64.97
2023-05-24T05:26:00.922Z,66.72
2023-05-24T05:31:03.393Z,65.63
2023-05-24T05:36:06.461Z,65.56
2023-05-24T05:41:08.877Z,65.73
2023-05-24T05:46:11.548Z,67.45
2023-05-24T05:51:14.224Z,67.38
2023-05-24T05:56:17.766Z,66.45
2023-05-24T06:01:19.963Z,66.96
2023-05-24T06:06:22.360Z,66.14
2023-05-24T06:11:24.737Z,65.93
2023-05-24T06:16:27.753Z,65.71
2023-05-24T06:21:30.306Z,66.08
2023-05-24T06:26:32.904Z,65.39
2023-05-24T06:31:35.636Z,67.78
2023-05-24T06:36:41.461Z,67.65
2023-05-24T06:41:46.095Z,65.97
2023-05-24T06:46:48.472Z,67.31
2023-05-24T06:51:50.658Z,65.20
2023-05-24T06:56:52.964Z,66.31
2023-05-24T07:01:59.529Z,66.10
2023-05-24T07:07:03.276Z,65.39
2023-05-24T07:12:08.895Z,65.52
2023-05-24T07:17:11.680Z,65.89
2023-05-24T07:22:13.947Z,63.81
2023-05-24T07:27:16.270Z,62.70
2023-05-24T07:32:18.977Z,63.54
2023-05-24T07:37:24.094Z,64.37
2023-05-24T07:42:26.389Z,64.76
2023-05-24T07:47:28.643Z,64.30
2023-05-24T07:52:31.392Z,63.64
2023-05-24T07:57:33.919Z,64.32
2023-05-24T08:02:36.284Z,64.34
2023-05-24T08:07:38.995Z,64.69
2023-05-24T08:12:41.773Z,64.37
2023-05-24T08:17:44.168Z,61.47
2023-05-24T08:22:48.364Z,61.91
2023-05-24T08:27:51.753Z,63.95
2023-05-24T08:32:54.107Z,64.73
2023-05-24T08:37:56.831Z,63.74
2023-05-24T08:43:01.875Z,62.41
2023-05-24T08:48:05.989Z,63.29
2023-05-24T08:53:10.726Z,63.37
2023-05-24T08:58:13.935Z,65.19
2023-05-24T09:03:18.206Z,62.95
2023-05-24T09:08:21.029Z,63.40
2023-05-24T09:13:27.564Z,62.24
2023-05-24T09:18:30.086Z,62.22
2023-05-24T09:23:32.871Z,64.33
2023-05-24T09:28:35.239Z,65.28
2023-05-24T09:33:37.567Z,64.87
2023-05-24T09:38:39.907Z,63.57
2023-05-24T09:43:50.020Z,62.32
2023-05-24T09:49:03.659Z,63.69
2023-05-24T09:54:06.445Z,64.59
2023-05-24T09:59:10.121Z,65.34
2023-05-24T10:04:14.171Z,65.52
2023-05-24T10:09:16.684Z,64.10
2023-05-24T10:14:19.652Z,63.34
2023-05-24T10:19:23.448Z,63.14
2023-05-24T10:24:33.735Z,62.48
2023-05-24T10:30:14.383Z,63.83
2023-05-24T10:35:18.327Z,62.36
2023-05-24T10:40:25.584Z,61.64
2023-05-24T10:45:38.924Z,60.58
2023-05-24T10:50:42.099Z,61.65
2023-05-24T10:56:01.606Z,61.87
2023-05-24T11:01:04.345Z,60.51
2023-05-24T11:06:07.776Z,62.07
2023-05-24T11:11:25.402Z,59.80
2023-05-24T11:16:40.604Z,61.27
2023-05-24T11:21:49.224Z,59.54
2023-05-24T11:26:53.074Z,59.32
2023-05-24T11:32:02.577Z,59.12
2023-05-24T11:37:06.309Z,59.35
2023-05-24T11:42:10.028Z,57.44
2023-05-24T11:47:13.995Z,59.91
2023-05-24T11:52:16.223Z,60.32
2023-05-24T11:57:27.327Z,58.02
2023-05-24T12:02:31.180Z,57.73
2023-05-24T12:07:33.503Z,57.18
2023-05-24T12:12:45.627Z,58.78
2023-05-24T12:17:52.404Z,56.08
2023-05-24T12:22:56.563Z,55.30
2023-05-24T12:27:59.059Z,55.91
2023-05-24T12:33:01.739Z,56.76
2023-05-24T12:38:04.235Z,54.67
2023-05-24T12:43:06.580Z,55.54
2023-05-24T12:48:09.257Z,54.31
2023-05-24T12:53:11.881Z,55.74
2023-05-24T12:58:16.466Z,54.03
2023-05-24T13:03:19.789Z,55.45
2023-05-24T13:08:22.073Z,54.85
2023-05-24T13:13:24.505Z,54.65
2023-05-24T13:18:26.777Z,55.30
2023-05-24T13:23:29.103Z,54.98
2023-05-24T13:28:31.743Z,55.44
2023-05-24T13:33:34.065Z,55.30
2023-05-24T13:38:36.569Z,55.76
2023-05-24T13:43:38.714Z,54.02
2023-05-24T13:48:40.961Z,54.12
2023-05-24T13:53:43.237Z,51.97
2023-05-24T13:58:45.885Z,52.31
2023-05-24T14:03:48.093Z,53.10
2023-05-24T14:08:50.764Z,53.88
2023-05-24T14:18:58.854Z,52.19
2023-05-24T14:24:01.369Z,51.57
2023-05-24T14:29:03.637Z,52.38
2023-05-24T14:34:05.950Z,51.02
2023-05-24T14:39:08.776Z,51.24
2023-05-24T14:44:11.028Z,51.32
2023-05-24T14:49:13.505Z,50.86
2023-05-24T14:54:16.627Z,49.54
2023-05-24T14:59:18.963Z,50.06
2023-05-24T15:04:21.142Z,50.29
2023-05-24T15:09:23.501Z,49.95
2023-05-24T15:14:25.820Z,49.03
2023-05-24T15:19:28.626Z,49.06
2023-05-24T15:24:30.882Z,48.83
2023-05-24T15:29:33.221Z,49.75
2023-05-24T15:34:35.551Z,49.14
2023-05-24T15:39:37.880Z,49.02
2023-05-24T15:44:40.037Z,47.61
2023-05-24T15:49:42.468Z,48.31
2023-05-24T15:54:44.755Z,45.89
2023-05-24T15:59:47.112Z,46.37
2023-05-24T16:04:49.963Z,46.59
2023-05-24T16:09:52.396Z,46.82
2023-05-24T16:14:54.642Z,46.33
2023-05-24T16:19:57.000Z,46.30
2023-05-24T16:24:59.197Z,46.28
2023-05-24T16:30:01.498Z,44.04
2023-05-24T16:35:04.614Z,45.94
2023-05-24T16:40:07.919Z,45.25
2023-05-24T16:45:10.595Z,46.46
2023-05-24T16:50:16.087Z,45.06
2023-05-24T16:55:18.739Z,44.96
2023-05-24T17:00:22.674Z,45.32
2023-05-24T17:05:25.037Z,45.31
2023-05-24T17:10:27.573Z,45.95
2023-05-24T17:15:29.766Z,44.50
2023-05-24T17:20:32.127Z,44.47
2023-05-24T17:25:34.575Z,43.37
2023-05-24T17:30:37.289Z,44.10
2023-05-24T17:35:40.901Z,42.51
2023-05-24T17:40:49.095Z,43.21
2023-05-24T17:45:51.518Z,42.31
2023-05-24T17:50:53.798Z,41.79
2023-05-24T17:55:56.228Z,41.20
2023-05-24T18:00:58.526Z,41.28
2023-05-24T18:06:01.374Z,41.96
2023-05-24T18:11:08.460Z,43.74
2023-05-24T18:16:12.448Z,42.88
2023-05-24T18:21:14.722Z,44.26
2023-05-24T18:26:17.110Z,44.41
2023-05-24T18:31:20.443Z,43.99
2023-05-24T18:36:22.852Z,44.70
2023-05-24T18:41:25.087Z,45.71
2023-05-24T18:46:28.845Z,46.25
2023-05-24T18:51:31.146Z,46.08
2023-05-24T18:56:33.453Z,47.45
2023-05-24T19:01:36.551Z,47.42
2023-05-24T19:06:39.365Z,47.94
2023-05-24T19:11:42.155Z,49.76
2023-05-24T19:16:44.377Z,49.66
2023-05-24T19:21:46.710Z,48.97
2023-05-24T19:26:48.873Z,51.21
2023-05-24T19:31:51.209Z,52.41
2023-05-24T19:36:53.420Z,53.28
2023-05-24T19:41:55.757Z,53.09
2023-05-24T19:46:57.922Z,51.89
2023-05-24T19:52:00.174Z,52.12
2023-05-24T19:57:02.647Z,52.16
2023-05-24T20:02:05.276Z,51.96
2023-05-24T20:07:08.695Z,53.58
2023-05-24T20:12:11.365Z,52.03
2023-05-24T20:17:13.555Z,52.85
2023-05-24T20:22:16.851Z,52.20
2023-05-24T20:27:19.017Z,52.32
2023-05-24T20:32:21.357Z,53.51
2023-05-24T20:37:23.529Z,53.25
2023-05-24T20:42:25.768Z,53.13
2023-05-24T20:47:30.174Z,52.95
2023-05-24T20:52:32.652Z,54.44
2023-05-24T20:57:34.987Z,54.25
2023-05-24T21:02:38.205Z,53.97
2023-05-24T21:07:40.856Z,53.83
2023-05-24T21:12:43.079Z,55.20
2023-05-24T21:17:45.523Z,57.64
2023-05-24T21:22:47.892Z,58.44
2023-05-24T21:27:50.120Z,57.21
2023-05-24T21:32:52.340Z,59.20
2023-05-24T21:37:54.664Z,58.48
2023-05-24T21:42:56.889Z,59.62
2023-05-24T21:47:59.256Z,61.21
2023-05-24T21:53:02.452Z,62.66
2023-05-24T21:58:04.831Z,61.90
2023-05-24T22:03:07.304Z,64.25
2023-05-24T22:08:10.824Z,62.96
2023-05-24T22:13:13.160Z,64.33
2023-05-24T22:18:18.295Z,65.41
2023-05-24T22:23:20.461Z,64.70
2023-05-24T22:28:24.951Z,62.82
2023-05-24T22:33:27.237Z,64.80
2023-05-24T22:38:29.549Z,65.11
2023-05-24T22:43:31.704Z,66.09
2023-05-24T22:48:34.763Z,66.31
2023-05-24T22:53:39.280Z,65.99
2023-05-24T22:58:42.036Z,64.78
2023-05-24T23:03:44.170Z,63.47
2023-05-24T23:08:47.843Z,62.37
2023-05-24T23:13:51.932Z,62.49
2023-05-24T23:18:57.481Z,62.64
2023-05-24T23:24:02.177Z,64.78
2023-05-24T23:29:04.467Z,63.31
2023-05-24T23:34:07.035Z,64.95
2023-05-24T23:39:11.041Z,64.31
2023-05-24T23:44:13.412Z,63.79
2023-05-24T23:49:16.032Z,63.83
2023-05-24T23:54:19.358Z,66.38
2023-05-24T23:59:22.116Z,64.65
